• Join FlightAware (Why Join?)
  • Login
  • US Flag 
09:56AM EDT


 

Airport Tracker/Info


-or-


 

Live Flight TrackerFlight Track Log ✈ THY2454 ✈ 10-Jul-2013 ✈ LTBA / IST - LTAF / ADA

Flight Track Log - Related Links

Times and Time Zones

All times are in EDT time to prevent confusion due to time zone crossing. See the THY2454 flight status page for this flight to view local times or setup timezone preferences in your user account.

Time Position Orientation Groundspeed Altitude Reporting Facility
EDT Latitude Longitude Course Direction KTS MPH feet Rate Location/Type
11:34PM 40.6631 29.3792 126° Southeast  Level Estimated
11:35PM 40.6000 29.4902 127° Southeast  Level Estimated
11:36PM 40.5368 29.6009 127° Southeast  Level Estimated
11:37PM 40.4735 29.7115 127° Southeast  Level Estimated
11:38PM 40.4100 29.8218 127° Southeast  Level Estimated
11:39PM 40.3465 29.9320 127° Southeast  Level Estimated
11:40PM 40.2829 30.0419 127° Southeast  Level Estimated
11:41PM 40.2192 30.1516 127° Southeast  Level Estimated
11:42PM 40.1554 30.2612 127° Southeast  Level Estimated
11:43PM 40.0914 30.3705 127° Southeast  Level Estimated
11:44PM 40.0274 30.4796 127° Southeast  Level Estimated
11:45PM 39.9633 30.5885 128° Southeast  Level Estimated
11:46PM 39.8991 30.6972 128° Southeast  Level Estimated
11:47PM 39.8347 30.8057 128° Southeast  Level Estimated
11:48PM 39.7703 30.9140 128° Southeast  Level Estimated
11:49PM 39.7058 31.0221 128° Southeast  Level Estimated
11:50PM 39.6411 31.1300 128° Southeast  Level Estimated
11:51PM 39.5764 31.2377 128° Southeast  Level Estimated
11:52PM 39.5116 31.3452 128° Southeast  Level Estimated
11:53PM 39.4466 31.4524 128° Southeast  Level Estimated
11:54PM 39.3816 31.5595 128° Southeast  Level Estimated
11:55PM 39.3165 31.6664 128° Southeast  Level Estimated
11:56PM 39.2512 31.7731 128° Southeast  Level Estimated
11:57PM 39.1859 31.8796 128° Southeast  Level Estimated
11:58PM 39.1205 31.9859 128° Southeast  Level Estimated
11:59PM 39.0550 32.0920 128° Southeast  Level Estimated
12:00AM 38.9894 32.1979 129° Southeast  Level Estimated
12:01AM 38.9237 32.3036 129° Southeast  Level Estimated
12:02AM 38.8579 32.4091 129° Southeast  Level Estimated
12:03AM 38.7920 32.5144 129° Southeast  Level Estimated
12:04AM 38.7260 32.6195 129° Southeast  Level Estimated
12:05AM 38.6599 32.7245 129° Southeast  Level Estimated
12:06AM 38.5937 32.8292 129° Southeast  Level Estimated
12:07AM 38.5274 32.9337 129° Southeast  Level Estimated
12:08AM 38.4611 33.0381 129° Southeast  Level Estimated
12:09AM 38.3946 33.1422 129° Southeast  Level Estimated
12:10AM 38.3280 33.2462 129° Southeast  Level Estimated
12:11AM 38.2614 33.3499 129° Southeast  Level Estimated
12:12AM 38.1947 33.4535 129° Southeast  Level Estimated
12:13AM 38.1279 33.5569 129° Southeast  Level Estimated
12:14AM 38.0610 33.6601 129° Southeast  Level Estimated
12:15AM 37.9939 33.7631 130° Southeast  Level Estimated
12:16AM 37.9268 33.8660 130° Southeast  Level Estimated
12:17AM 37.8597 33.9686 130° Southeast  Level Estimated
12:18AM 37.7924 34.0710 130° Southeast  Level Estimated
12:19AM 37.7250 34.1733 130° Southeast  Level Estimated
12:20AM 37.6576 34.2754 130° Southeast  Level Estimated
12:21AM 37.5900 34.3773 130° Southeast  Level Estimated
12:22AM 37.5224 34.4790 130° Southeast  Level Estimated
12:23AM 37.4547 34.5805 130° Southeast  Level Estimated
12:24AM 37.3869 34.6818 130° Southeast  Level Estimated
12:25AM 37.3190 34.7830 130° Southeast  Level Estimated
12:26AM 37.2510 34.8840 130° Southeast  Level Estimated
12:27AM 37.1830 34.9847 130° Southeast  Level Estimated
12:28AM 37.1148 35.0854 130° Southeast  Level Estimated
12:29AM 37.0466 35.1858 130° Southeast  Level Estimated
12:30AM 36.9822 35.2804 130° Southeast  Level Estimated
12:31AM 36.9822 35.2804 202° Southwest  Level Estimated
12:32AM 36.9822 35.2804 202° Southwest  Level Estimated
12:33AM 36.9822 35.2804 202° Southwest  Level Estimated
12:34AM 36.9822 35.2804 202° Southwest  Level Estimated
12:35AM 36.9822 35.2804 202° Southwest  Level Estimated
12:36AM 36.9822 35.2804 202° Southwest  Level Estimated
12:37AM 36.9822 35.2804 202° Southwest  Level Estimated
12:38AM 36.9822 35.2804 202° Southwest  Level Estimated
12:39AM 36.9822 35.2804 202° Southwest  Level Estimated
12:40AM 36.9822 35.2804 202° Southwest  Level Estimated
12:41AM 36.9822 35.2804 202° Southwest  Level Estimated
12:42AM 36.9822 35.2804 202° Southwest  Level Estimated
12:43AM 36.9822 35.2804 202° Southwest  Level Estimated
12:44AM 36.9822 35.2804 202° Southwest  Level Estimated
12:45AM 36.9822 35.2804 202° Southwest  Level Estimated
12:46AM 36.9822 35.2804 202° Southwest  Level Estimated